Terminal Aerodrome Forecast
Issued by NWS

Home | Current Version | Previous Version | Graphics & Text | Print | Product List | Glossary On
Versions: 1 2 3 4 5 6 7 8 9 10 11 12 13 14 15 16 17 18
837
FTUS43 KFGF 090520
TAFBJI
TAF
KBJI 090520Z 0906/1006 32012G18KT P6SM BKN025
     FM090900 33010G17KT P6SM SCT025
      TEMPO 0909/0911 BKN025
     FM091100 32009KT P6SM SCT250
     FM100200 35003KT P6SM SKC=

USA.gov is the U.S. government's official web portal to all federal, state and local government web resources and services.